Time;durP1;ratioP1;P1;durP2;ratioP2;P2;SDS_P1;SDS_P2;PMS_P1;PMS_P2;Temp;Humidity;BMP_temperature;BMP_pressure;BME280_temperature;BME280_humidity;BME280_pressure;Samples;Min_cycle;Max_cycle;Signal;HPM_P1;HPM_P2
2023/11/27 00:00:58;;;;;;;9.17;5.90;;;;;;;4.52;100.00;100195.69;5030927;28;20214;-81
2023/11/27 00:03:24;;;;;;;6.77;4.80;;;;;;;4.54;100.00;100193.81;5036580;28;20210;-80
2023/11/27 00:05:51;;;;;;;7.10;5.43;;;;;;;4.53;100.00;100189.47;5034579;28;20324;-79
2023/11/27 00:08:17;;;;;;;6.77;4.77;;;;;;;4.54;100.00;100188.56;5031269;28;20222;-80
2023/11/27 00:10:45;;;;;;;8.60;5.90;;;;;;;4.56;100.00;100191.13;5035200;28;20209;-80
2023/11/27 00:13:11;;;;;;;7.83;5.80;;;;;;;4.54;100.00;100185.06;5036208;28;20205;-78
2023/11/27 00:15:38;;;;;;;6.00;5.30;;;;;;;4.56;100.00;100193.75;5032406;28;20211;-79
2023/11/27 00:18:05;;;;;;;9.00;6.10;;;;;;;4.54;100.00;100187.69;5031101;28;20226;-81
2023/11/27 00:20:31;;;;;;;8.07;6.13;;;;;;;4.54;100.00;100187.69;5036291;28;20261;-79
2023/11/27 00:22:58;;;;;;;7.07;6.00;;;;;;;4.53;100.00;100185.97;5041534;28;20214;-79
2023/11/27 00:25:25;;;;;;;8.70;7.07;;;;;;;4.53;100.00;100185.97;5041651;28;20230;-79
2023/11/27 00:27:53;;;;;;;7.27;5.90;;;;;;;4.53;100.00;100185.97;5038293;28;20251;-80
2023/11/27 00:30:20;;;;;;;6.17;5.00;;;;;;;4.54;100.00;100185.91;5038944;28;20202;-79
2023/11/27 00:32:46;;;;;;;7.77;5.37;;;;;;;4.51;100.00;100183.41;5026683;28;20256;-79
2023/11/27 00:35:13;;;;;;;6.07;5.10;;;;;;;4.50;100.00;100181.69;5033643;28;20215;-80
2023/11/27 00:37:39;;;;;;;5.90;4.77;;;;;;;4.48;100.00;100175.63;5033319;28;20206;-78
2023/11/27 00:40:07;;;;;;;5.60;4.57;;;;;;;4.48;100.00;100177.41;5036082;28;20203;-79
2023/11/27 00:42:33;;;;;;;6.93;4.80;;;;;;;4.46;100.00;100174.03;5041863;28;20206;-80
2023/11/27 00:45:01;;;;;;;3.67;3.07;;;;;;;4.44;100.00;100178.50;5033507;28;20233;-80
2023/11/27 00:47:28;;;;;;;4.50;2.93;;;;;;;4.43;100.00;100169.75;5040819;28;20216;-80
2023/11/27 00:49:53;;;;;;;3.37;2.77;;;;;;;4.40;100.00;100166.38;5033252;28;20213;-79
2023/11/27 00:52:20;;;;;;;2.70;2.10;;;;;;;4.40;100.00;100166.38;5034534;28;20206;-81
2023/11/27 00:54:47;;;;;;;2.73;2.43;;;;;;;4.38;100.00;100157.69;5042767;28;20210;-79
2023/11/27 00:57:14;;;;;;;3.03;2.23;;;;;;;4.37;100.00;100153.34;5038799;28;20205;-80
2023/11/27 00:59:40;;;;;;;3.70;2.23;;;;;;;4.35;100.00;100156.03;5017486;28;20234;-79
2023/11/27 01:02:09;;;;;;;3.53;2.70;;;;;;;4.34;100.00;100156.97;5033083;28;20207;-79
2023/11/27 01:04:38;;;;;;;3.17;2.87;;;;;;;4.34;100.00;100148.19;5031579;28;20293;-78
2023/11/27 01:07:04;;;;;;;5.43;3.17;;;;;;;4.32;100.00;100160.59;5031994;28;20226;-79
2023/11/27 01:09:31;;;;;;;3.63;2.90;;;;;;;4.30;100.00;100150.13;5036823;28;20236;-79
2023/11/27 01:11:58;;;;;;;2.40;2.03;;;;;;;4.33;100.00;100154.41;5027809;28;20260;-78
2023/11/27 01:14:24;;;;;;;4.03;2.63;;;;;;;4.32;100.00;100148.28;5031960;28;20294;-79
2023/11/27 01:16:51;;;;;;;3.00;2.43;;;;;;;4.31;100.00;100150.97;5036097;28;20206;-80
2023/11/27 01:19:19;;;;;;;3.73;3.00;;;;;;;4.30;100.00;100141.38;5036392;28;20284;-79
2023/11/27 01:21:45;;;;;;;6.03;3.37;;;;;;;4.31;100.00;100141.28;5033128;28;20207;-80
2023/11/27 01:24:12;;;;;;;5.63;3.70;;;;;;;4.30;100.00;100142.19;5039444;28;20224;-79
2023/11/27 01:26:38;;;;;;;5.27;3.93;;;;;;;4.36;100.00;100135.81;5035553;28;20243;-79
2023/11/27 01:29:05;;;;;;;6.87;3.83;;;;;;;4.34;100.00;100140.28;5034034;28;20222;-80
2023/11/27 01:31:31;;;;;;;4.17;3.20;;;;;;;4.34;100.00;100132.38;5042949;28;20224;-81
2023/11/27 01:33:57;;;;;;;3.30;2.97;;;;;;;4.31;100.00;100129.88;5032435;28;20596;-81
2023/11/27 01:36:25;;;;;;;2.80;2.50;;;;;;;4.30;100.00;100130.84;5037090;28;20194;-81
2023/11/27 01:38:53;;;;;;;3.23;2.80;;;;;;;4.29;100.00;100132.63;5044745;28;20709;-80
2023/11/27 01:41:20;;;;;;;2.80;2.13;;;;;;;4.29;100.00;100135.25;5029443;28;20589;-79
2023/11/27 01:43:46;;;;;;;3.37;2.20;;;;;;;4.32;100.00;100134.22;5036425;28;20213;-80
2023/11/27 01:46:25;;;;;;;3.03;2.30;;;;;;;4.30;100.00;100129.03;5025459;28;20222;-80
2023/11/27 01:48:53;;;;;;;1.90;1.70;;;;;;;4.31;100.00;100121.97;5023723;28;20233;-78
2023/11/27 01:51:20;;;;;;;3.30;2.17;;;;;;;4.27;100.00;100120.44;5037955;28;20213;-80
2023/11/27 01:53:49;;;;;;;2.53;1.87;;;;;;;4.23;100.00;100118.84;5033981;28;20216;-79
2023/11/27 01:56:16;;;;;;;2.43;2.10;;;;;;;4.19;100.00;100108.44;5033380;28;20698;-80
2023/11/27 01:58:44;;;;;;;2.50;2.07;;;;;;;4.19;100.00;100103.16;5025909;28;20230;-79
2023/11/27 02:01:11;;;;;;;2.90;2.03;;;;;;;4.18;100.00;100108.50;5039570;28;20229;-78
2023/11/27 02:03:37;;;;;;;3.23;2.47;;;;;;;4.19;100.00;100105.81;5030849;28;20206;-79
2023/11/27 02:06:04;;;;;;;2.97;1.80;;;;;;;4.19;100.00;100094.41;5035264;28;20244;-80
2023/11/27 02:08:31;;;;;;;2.50;2.10;;;;;;;4.17;100.00;100101.53;5040266;28;20224;-78
2023/11/27 02:10:59;;;;;;;2.53;2.17;;;;;;;4.16;100.00;100108.56;5036028;28;20238;-78
2023/11/27 02:13:26;;;;;;;3.00;1.90;;;;;;;4.15;100.00;100096.31;5038240;28;20848;-81
2023/11/27 02:15:53;;;;;;;2.00;1.80;;;;;;;4.14;100.00;100091.97;5029917;28;20217;-79
2023/11/27 02:18:20;;;;;;;2.37;2.17;;;;;;;4.14;100.00;100088.47;5033552;28;20249;-79
2023/11/27 02:20:46;;;;;;;2.27;2.07;;;;;;;4.13;100.00;100089.41;5029989;28;20234;-80
2023/11/27 02:23:16;;;;;;;2.73;2.50;;;;;;;4.11;100.00;100078.97;5027583;28;20214;-80
2023/11/27 02:25:42;;;;;;;2.37;2.17;;;;;;;4.11;100.00;100070.19;5035983;28;20230;-80
2023/11/27 02:28:09;;;;;;;2.87;2.63;;;;;;;4.12;100.00;100072.75;5034132;28;20698;-79
2023/11/27 02:30:36;;;;;;;4.37;3.20;;;;;;;4.09;100.00;100066.78;5027676;28;20211;-79
2023/11/27 02:33:02;;;;;;;3.57;3.03;;;;;;;4.08;100.00;100065.06;5030876;28;20753;-80
2023/11/27 02:35:29;;;;;;;5.20;3.13;;;;;;;4.08;100.00;100059.81;5039170;28;20199;-80
2023/11/27 02:37:56;;;;;;;3.83;3.40;;;;;;;4.07;100.00;100060.72;5035458;28;20232;-79
2023/11/27 02:40:24;;;;;;;4.83;3.73;;;;;;;4.06;100.00;100049.31;5045017;28;20213;-79
2023/11/27 02:42:50;;;;;;;3.83;3.40;;;;;;;4.06;100.00;100049.31;5032959;28;20221;-78
2023/11/27 02:45:17;;;;;;;4.83;4.33;;;;;;;4.05;100.00;100052.03;5031249;28;20213;-78
2023/11/27 02:47:43;;;;;;;4.00;3.67;;;;;;;4.06;100.00;100046.69;5031728;28;20218;-79
2023/11/27 02:50:11;;;;;;;6.60;4.70;;;;;;;4.06;100.00;100044.06;5034467;28;20648;-79
2023/11/27 02:52:37;;;;;;;6.17;4.50;;;;;;;4.07;100.00;100050.19;5030079;28;20599;-78
2023/11/27 02:55:05;;;;;;;5.50;4.90;;;;;;;4.06;100.00;100044.06;5029142;28;20206;-80
2023/11/27 02:57:33;;;;;;;6.93;5.30;;;;;;;4.06;100.00;100038.78;5029832;28;20230;-80
2023/11/27 02:59:59;;;;;;;5.83;5.20;;;;;;;4.05;100.00;100037.06;5039276;28;20209;-79
2023/11/27 03:02:26;;;;;;;6.43;5.70;;;;;;;4.07;100.00;100027.31;5038602;28;20205;-79
2023/11/27 03:04:53;;;;;;;7.87;6.40;;;;;;;4.06;100.00;100024.75;5032566;28;20842;-79
2023/11/27 03:07:19;;;;;;;8.40;6.50;;;;;;;4.09;100.00;100024.63;5042045;28;20222;-80
2023/11/27 03:09:47;;;;;;;9.17;7.30;;;;;;;4.09;100.00;100022.84;5031861;28;20248;-81
2023/11/27 03:12:13;;;;;;;9.37;7.67;;;;;;;4.07;100.00;100019.41;5031167;28;20889;-80
2023/11/27 03:14:41;;;;;;;8.87;7.03;;;;;;;4.10;100.00;100010.53;5029585;28;20221;-80
2023/11/27 03:17:08;;;;;;;10.37;7.20;;;;;;;4.09;100.00;100006.19;5027567;28;20201;-80
2023/11/27 03:19:37;;;;;;;8.53;7.07;;;;;;;4.04;100.00;100011.66;5023908;28;20225;-80
2023/11/27 03:22:03;;;;;;;11.00;7.10;;;;;;;4.06;100.00;100007.16;5032850;28;20605;-81
2023/11/27 03:24:30;;;;;;;12.50;8.27;;;;;;;4.06;100.00;100008.94;5033642;28;20213;-80
2023/11/27 03:26:56;;;;;;;11.07;7.40;;;;;;;4.07;100.00;100006.25;5027854;28;20225;-80
2023/11/27 03:29:23;;;;;;;11.67;8.17;;;;;;;4.09;100.00;99999.13;5028456;28;20310;-80
2023/11/27 03:31:51;;;;;;;11.90;8.87;;;;;;;4.04;100.00;99998.47;5029968;28;20210;-81
2023/11/27 03:34:17;;;;;;;13.53;8.07;;;;;;;4.06;100.00;99996.63;5029777;28;20206;-80
2023/11/27 03:36:44;;;;;;;12.50;8.83;;;;;;;4.03;100.00;99991.50;5033249;28;20209;-81
2023/11/27 03:39:11;;;;;;;16.33;9.50;;;;;;;4.05;100.00;99992.28;5031894;28;20596;-80
2023/11/27 03:41:37;;;;;;;11.80;7.73;;;;;;;4.05;100.00;99988.78;5031285;28;20214;-81
2023/11/27 03:44:04;;;;;;;12.17;8.40;;;;;;;4.02;100.00;99986.28;5033720;28;20210;-81
2023/11/27 03:46:30;;;;;;;14.60;8.37;;;;;;;4.03;100.00;99991.50;5026040;28;20225;-81
2023/11/27 03:48:58;;;;;;;11.87;8.43;;;;;;;4.01;100.00;99995.97;5031172;28;20232;-81
2023/11/27 03:51:24;;;;;;;10.67;8.13;;;;;;;4.03;100.00;99986.22;5038667;28;20202;-80
2023/11/27 03:53:51;;;;;;;11.53;8.30;;;;;;;4.01;100.00;99988.06;5034122;28;20217;-81
2023/11/27 03:56:18;;;;;;;14.57;8.63;;;;;;;4.03;100.00;99988.00;5030205;28;20229;-80
2023/11/27 03:58:44;;;;;;;13.93;8.73;;;;;;;4.02;100.00;99988.94;5029015;28;20221;-81
2023/11/27 04:01:13;;;;;;;11.90;8.23;;;;;;;4.00;100.00;99986.38;5031823;28;20824;-81
2023/11/27 04:03:40;;;;;;;12.13;8.70;;;;;;;4.01;100.00;99980.16;5025750;28;20269;-80
2023/11/27 04:06:09;;;;;;;13.23;8.97;;;;;;;4.01;100.00;99979.31;5029252;28;20229;-81
2023/11/27 04:08:38;;;;;;;12.63;8.50;;;;;;;4.02;100.00;99973.97;5030399;28;20229;-81
2023/11/27 04:11:05;;;;;;;14.67;8.93;;;;;;;4.00;100.00;99975.81;5031403;28;20578;-80
2023/11/27 04:13:33;;;;;;;16.63;9.37;;;;;;;4.00;100.00;99983.72;5034277;28;20202;-82
2023/11/27 04:15:59;;;;;;;13.33;8.20;;;;;;;4.02;100.00;99981.88;5030914;28;20206;-80
2023/11/27 04:18:26;;;;;;;15.37;9.03;;;;;;;4.02;100.00;99979.25;5016416;28;20226;-80
2023/11/27 04:20:52;;;;;;;16.53;9.73;;;;;;;4.04;100.00;99971.28;5032393;28;20214;-81
2023/11/27 04:23:20;;;;;;;18.00;9.37;;;;;;;4.05;100.00;99972.97;5030245;28;20210;-80
2023/11/27 04:25:46;;;;;;;13.57;9.10;;;;;;;4.04;100.00;99968.63;5029084;28;20207;-80
2023/11/27 04:28:13;;;;;;;14.93;9.07;;;;;;;4.02;100.00;99968.72;5032158;28;20233;-80
2023/11/27 04:30:39;;;;;;;13.90;8.97;;;;;;;4.04;100.00;99963.38;5033115;28;20247;-80
2023/11/27 04:33:06;;;;;;;14.97;9.00;;;;;;;4.05;100.00;99959.81;5029510;28;20688;-82
2023/11/27 04:35:32;;;;;;;11.50;8.73;;;;;;;4.07;100.00;99950.06;5037995;28;20210;-81
2023/11/27 04:37:58;;;;;;;18.13;9.90;;;;;;;4.04;100.00;99945.78;5038725;28;20237;-80
2023/11/27 04:40:26;;;;;;;12.53;9.03;;;;;;;4.04;100.00;99944.94;5035894;28;20203;-81
2023/11/27 04:42:53;;;;;;;14.23;7.73;;;;;;;4.04;100.00;99945.78;5042538;28;20282;-80
2023/11/27 04:45:20;;;;;;;11.40;8.53;;;;;;;4.04;100.00;99935.25;5035520;28;20209;-80
2023/11/27 04:47:46;;;;;;;13.40;8.80;;;;;;;4.04;100.00;99934.38;5040576;28;20237;-82
2023/11/27 04:50:13;;;;;;;11.67;8.17;;;;;;;4.04;100.00;99929.97;5041778;28;20254;-81
2023/11/27 04:52:39;;;;;;;12.83;8.97;;;;;;;4.03;100.00;99920.34;5034184;28;20213;-80
2023/11/27 04:55:07;;;;;;;12.17;8.50;;;;;;;4.03;100.00;99920.34;5031886;28;20210;-81
2023/11/27 04:57:35;;;;;;;9.07;7.37;;;;;;;4.03;100.00;99912.44;5034568;28;20210;-80
2023/11/27 05:00:04;;;;;;;11.50;7.37;;;;;;;4.02;100.00;99918.66;5041467;28;20210;-80
2023/11/27 05:02:30;;;;;;;13.50;8.10;;;;;;;4.09;100.00;99917.44;5033959;28;20675;-82
2023/11/27 05:04:57;;;;;;;10.53;8.23;;;;;;;4.04;100.00;99916.78;5036484;28;20206;-80
2023/11/27 05:07:23;;;;;;;10.37;7.87;;;;;;;4.04;100.00;99908.03;5029737;28;20254;-82
2023/11/27 05:09:50;;;;;;;10.73;7.73;;;;;;;4.01;100.00;99903.75;5033422;28;20297;-81
2023/11/27 05:12:16;;;;;;;12.67;7.50;;;;;;;4.01;100.00;99903.75;5034573;28;20206;-81
2023/11/27 05:14:44;;;;;;;10.37;7.13;;;;;;;4.01;100.00;99898.50;5041272;28;20213;-80
2023/11/27 05:17:10;;;;;;;11.97;7.87;;;;;;;4.00;100.00;99904.69;5032483;28;20206;-80
2023/11/27 05:19:36;;;;;;;11.03;7.57;;;;;;;4.01;100.00;99900.28;5029116;28;20911;-81
2023/11/27 05:22:03;;;;;;;9.80;7.30;;;;;;;3.99;100.00;99895.06;5039484;28;20210;-80
2023/11/27 05:24:29;;;;;;;10.23;7.00;;;;;;;3.98;100.00;99903.06;5033959;28;20206;-80
2023/11/27 05:26:57;;;;;;;10.60;8.07;;;;;;;3.97;100.00;99899.56;5033088;28;20233;-80
2023/11/27 05:29:24;;;;;;;11.47;7.97;;;;;;;3.96;100.00;99891.72;5037961;28;20264;-80
2023/11/27 05:31:51;;;;;;;14.73;7.57;;;;;;;3.95;100.00;99893.50;5043324;28;20210;-80
2023/11/27 05:34:18;;;;;;;14.70;8.30;;;;;;;3.94;100.00;99893.63;5038852;28;20206;-80
2023/11/27 05:36:44;;;;;;;13.90;8.07;;;;;;;3.94;100.00;99886.53;5043473;28;20198;-80
2023/11/27 05:39:11;;;;;;;11.07;7.23;;;;;;;3.97;100.00;99889.03;5034415;28;20245;-81
2023/11/27 05:41:38;;;;;;;9.93;7.47;;;;;;;4.01;100.00;99885.31;5043791;28;20270;-82
2023/11/27 05:44:06;;;;;;;8.73;7.23;;;;;;;3.98;100.00;99879.34;5027969;28;20727;-81
2023/11/27 05:46:32;;;;;;;9.43;6.00;;;;;;;3.95;100.00;99882.13;5034636;28;20210;-81
2023/11/27 05:49:00;;;;;;;9.50;7.20;;;;;;;3.94;100.00;99877.81;5037236;28;20248;-81
2023/11/27 05:51:27;;;;;;;9.93;7.00;;;;;;;3.94;100.00;99875.19;5027968;28;20301;-81
2023/11/27 05:53:55;;;;;;;10.37;6.70;;;;;;;3.95;100.00;99871.59;5034726;28;20219;-80
2023/11/27 05:56:22;;;;;;;7.37;6.20;;;;;;;3.94;100.00;99860.19;5032561;28;20209;-81
2023/11/27 05:58:48;;;;;;;9.43;5.80;;;;;;;3.93;100.00;99869.06;5036923;28;21010;-80
2023/11/27 06:01:16;;;;;;;8.43;7.27;;;;;;;3.92;100.00;99864.72;5032944;28;20220;-80
2023/11/27 06:03:42;;;;;;;6.73;5.60;;;;;;;3.93;100.00;99860.28;5034808;28;20202;-82
2023/11/27 06:06:11;;;;;;;6.83;6.10;;;;;;;3.92;100.00;99856.81;5035241;28;20202;-80
2023/11/27 06:08:38;;;;;;;9.23;6.03;;;;;;;3.96;100.00;99857.47;5034950;28;20231;-79
2023/11/27 06:11:04;;;;;;;7.83;6.10;;;;;;;3.94;100.00;99852.28;5028484;28;20212;-79
2023/11/27 06:13:31;;;;;;;8.30;6.00;;;;;;;3.94;100.00;99847.03;5031524;28;20213;-79
2023/11/27 06:15:58;;;;;;;9.33;6.60;;;;;;;3.95;100.00;99848.72;5031080;28;20669;-80
2023/11/27 06:18:24;;;;;;;9.83;6.67;;;;;;;3.96;100.00;99842.53;5032635;28;20233;-80
2023/11/27 06:20:51;;;;;;;8.30;6.37;;;;;;;3.94;100.00;99844.38;5018507;28;20242;-79
2023/11/27 06:23:19;;;;;;;7.30;6.17;;;;;;;3.96;100.00;99832.00;5024878;28;20202;-80
2023/11/27 06:25:46;;;;;;;7.97;6.70;;;;;;;3.96;100.00;99839.91;5036173;28;20209;-79
2023/11/27 06:28:13;;;;;;;8.70;6.47;;;;;;;3.94;100.00;99836.47;5028304;28;20226;-80
2023/11/27 06:30:39;;;;;;;8.43;6.57;;;;;;;3.93;100.00;99833.94;5033732;28;20229;-80
2023/11/27 06:33:06;;;;;;;7.47;6.30;;;;;;;3.92;100.00;99835.72;5034009;28;20217;-79
2023/11/27 06:35:32;;;;;;;9.57;5.93;;;;;;;3.90;100.00;99832.31;5029889;28;20213;-79
2023/11/27 06:37:59;;;;;;;9.50;6.73;;;;;;;3.88;100.00;99828.91;5040664;28;21469;-79
2023/11/27 06:40:27;;;;;;;7.10;5.53;;;;;;;3.90;100.00;99818.28;5036938;28;20585;-79
2023/11/27 06:42:55;;;;;;;10.37;7.30;;;;;;;3.88;100.00;99815.72;5032166;28;20206;-79
2023/11/27 06:45:22;;;;;;;9.17;5.97;;;;;;;3.90;100.00;99810.38;5033798;28;20210;-80
2023/11/27 06:47:49;;;;;;;8.50;6.20;;;;;;;3.91;100.00;99814.72;5029359;28;20242;-79
2023/11/27 06:50:17;;;;;;;12.70;6.83;;;;;;;3.90;100.00;99816.50;5040528;28;20208;-80
2023/11/27 06:52:43;;;;;;;9.67;6.57;;;;;;;3.89;100.00;99819.22;5036623;28;20209;-80
2023/11/27 06:55:10;;;;;;;10.53;6.87;;;;;;;3.88;100.00;99809.59;5032314;28;20240;-80
2023/11/27 06:57:38;;;;;;;11.90;7.67;;;;;;;3.87;100.00;99810.53;5032163;28;20206;-80
2023/11/27 07:00:06;;;;;;;9.07;7.03;;;;;;;3.90;100.00;99805.13;5031971;28;20213;-79
2023/11/27 07:02:33;;;;;;;9.00;6.77;;;;;;;3.87;100.00;99803.47;5032027;28;20659;-80
2023/11/27 07:04:59;;;;;;;8.30;7.07;;;;;;;3.86;100.00;99798.28;5031289;28;20202;-80
2023/11/27 07:07:26;;;;;;;10.37;7.77;;;;;;;3.84;100.00;99798.38;5034038;28;20226;-80
2023/11/27 07:09:56;;;;;;;12.07;8.20;;;;;;;3.84;100.00;99787.84;5032952;28;20208;-80
2023/11/27 07:12:22;;;;;;;10.63;7.87;;;;;;;3.83;100.00;99788.75;5034308;28;20202;-80
2023/11/27 07:14:50;;;;;;;9.17;6.97;;;;;;;3.84;100.00;99782.56;5034226;28;20580;-80
2023/11/27 07:17:18;;;;;;;9.60;6.73;;;;;;;3.85;100.00;99779.00;5027116;28;20690;-80
2023/11/27 07:19:44;;;;;;;7.73;6.93;;;;;;;3.84;100.00;99775.50;5033314;28;20706;-80
2023/11/27 07:22:11;;;;;;;8.93;6.87;;;;;;;3.86;100.00;99772.81;5032764;28;20214;-80
2023/11/27 07:24:38;;;;;;;10.93;7.40;;;;;;;3.84;100.00;99762.34;5031914;28;20202;-80
2023/11/27 07:27:05;;;;;;;9.93;7.33;;;;;;;3.84;100.00;99764.13;5031580;28;20209;-81
2023/11/27 07:29:32;;;;;;;8.20;7.10;;;;;;;3.84;100.00;99762.34;5035796;28;20230;-80
2023/11/27 07:32:00;;;;;;;9.20;7.43;;;;;;;3.84;100.00;99750.94;5037827;28;20585;-80
2023/11/27 07:34:27;;;;;;;7.90;6.80;;;;;;;3.83;100.00;99760.63;5024118;28;20271;-80
2023/11/27 07:36:54;;;;;;;10.13;6.70;;;;;;;3.82;100.00;99756.28;5031259;28;20213;-80
2023/11/27 07:39:22;;;;;;;8.53;7.20;;;;;;;3.81;100.00;99751.09;5031974;28;20221;-80
2023/11/27 07:41:48;;;;;;;10.67;7.63;;;;;;;3.82;100.00;99758.06;5032227;28;20206;-80
2023/11/27 07:44:15;;;;;;;8.47;6.70;;;;;;;3.86;100.00;99756.16;5035713;28;20202;-80
2023/11/27 07:46:41;;;;;;;10.33;7.23;;;;;;;3.84;100.00;99749.19;5032219;28;20229;-81
2023/11/27 07:49:10;;;;;;;9.63;7.20;;;;;;;3.85;100.00;99747.41;5031673;28;20715;-80
2023/11/27 07:51:36;;;;;;;8.97;7.77;;;;;;;3.85;100.00;99739.50;5031829;28;20253;-81
2023/11/27 07:54:03;;;;;;;9.97;7.17;;;;;;;3.85;100.00;99739.50;5031610;28;20217;-82
2023/11/27 07:56:32;;;;;;;7.27;6.37;;;;;;;3.87;100.00;99737.63;5032856;28;20216;-82
2023/11/27 07:59:00;;;;;;;8.07;7.10;;;;;;;3.87;100.00;99735.00;5043378;28;20236;-82
2023/11/27 08:01:28;;;;;;;8.07;7.10;;;;;;;3.88;100.00;99727.94;5036913;28;20229;-82
2023/11/27 08:03:55;;;;;;;8.77;7.23;;;;;;;3.88;100.00;99726.16;5023529;28;20224;-82
2023/11/27 08:06:25;;;;;;;10.27;6.83;;;;;;;3.90;100.00;99726.94;5029629;28;20688;-83
2023/11/27 08:08:54;;;;;;;7.47;6.70;;;;;;;3.91;100.00;99726.03;5043845;28;20279;-82
2023/11/27 08:11:30;;;;;;;7.50;6.33;;;;;;;3.91;100.00;99712.00;5036713;28;20248;-82
2023/11/27 08:13:57;;;;;;;8.77;6.27;;;;;;;3.92;100.00;99709.28;5037557;28;20285;-83
2023/11/27 08:16:25;;;;;;;8.70;6.97;;;;;;;3.92;100.00;99709.28;5036932;28;20194;-82
2023/11/27 08:18:52;;;;;;;7.67;6.63;;;;;;;3.94;100.00;99707.41;5036859;28;20222;-82
2023/11/27 08:21:18;;;;;;;7.17;6.10;;;;;;;3.96;100.00;99702.06;5031974;28;20927;-82
2023/11/27 08:23:47;;;;;;;8.63;6.03;;;;;;;3.96;100.00;99707.31;5043281;28;20198;-81
2023/11/27 08:26:14;;;;;;;7.77;5.87;;;;;;;3.97;100.00;99706.41;5027679;28;20352;-82
2023/11/27 08:28:41;;;;;;;9.00;6.50;;;;;;;3.98;100.00;99701.06;5026733;28;20226;-84
2023/11/27 08:31:08;;;;;;;8.47;5.90;;;;;;;3.99;100.00;99694.00;5030575;28;20217;-84
2023/11/27 08:33:35;;;;;;;7.37;6.10;;;;;;;3.99;100.00;99689.59;5034512;28;20268;-82
2023/11/27 08:36:02;;;;;;;9.50;6.27;;;;;;;3.99;100.00;99684.31;5034158;28;20202;-84
2023/11/27 08:38:30;;;;;;;6.93;5.50;;;;;;;3.98;100.00;99687.03;5034130;28;20222;-82
2023/11/27 08:40:58;;;;;;;7.63;5.93;;;;;;;4.00;100.00;99687.81;5027979;28;20209;-82
2023/11/27 08:43:25;;;;;;;6.50;5.83;;;;;;;4.00;100.00;99682.53;5026519;28;20363;-82
2023/11/27 08:45:52;;;;;;;9.83;6.10;;;;;;;4.01;100.00;99682.47;5030538;28;20209;-81
2023/11/27 08:48:19;;;;;;;8.23;6.53;;;;;;;3.99;100.00;99678.19;5035019;28;20318;-84
2023/11/27 08:50:45;;;;;;;8.03;6.40;;;;;;;4.00;100.00;99672.84;5034171;28;20206;-84
2023/11/27 08:53:11;;;;;;;8.13;5.37;;;;;;;4.02;100.00;99673.63;5028754;28;20210;-83
2023/11/27 08:55:38;;;;;;;7.17;5.50;;;;;;;4.04;100.00;99673.53;5042732;28;20208;-82
2023/11/27 08:58:06;;;;;;;7.33;5.33;;;;;;;4.04;100.00;99670.91;5033769;28;20226;-81
2023/11/27 09:00:34;;;;;;;7.03;6.30;;;;;;;4.05;100.00;99678.75;5033984;28;20198;-81
2023/11/27 09:03:02;;;;;;;8.23;6.07;;;;;;;4.07;100.00;99666.34;5035486;28;20222;-81
2023/11/27 09:05:30;;;;;;;7.50;5.73;;;;;;;4.08;100.00;99668.03;5038308;28;20213;-82
2023/11/27 09:08:00;;;;;;;8.70;6.30;;;;;;;4.11;100.00;99665.25;5031883;28;20229;-82
2023/11/27 09:10:26;;;;;;;10.17;5.70;;;;;;;4.12;100.00;99660.84;5036456;28;20675;-84
2023/11/27 09:12:53;;;;;;;11.07;6.03;;;;;;;4.08;100.00;99662.78;5037920;28;20201;-82
2023/11/27 09:15:21;;;;;;;7.90;6.03;;;;;;;4.12;100.00;99664.28;5031341;28;20203;-83
2023/11/27 09:17:48;;;;;;;9.40;6.27;;;;;;;4.12;100.00;99659.03;5028532;28;20218;-82
2023/11/27 09:20:15;;;;;;;9.03;6.10;;;;;;;4.15;100.00;99661.50;5030917;28;20704;-84
2023/11/27 09:22:42;;;;;;;8.07;6.10;;;;;;;4.13;100.00;99652.81;5032219;28;20225;-82
2023/11/27 09:25:12;;;;;;;8.43;5.93;;;;;;;4.15;100.00;99652.75;5032953;28;20608;-84
2023/11/27 09:27:47;;;;;;;8.27;6.00;;;;;;;4.17;100.00;99653.53;5037677;28;20202;-83
2023/11/27 09:30:14;;;;;;;7.97;6.90;;;;;;;4.22;100.00;99648.00;5034764;28;20213;-83
2023/11/27 09:32:42;;;;;;;8.10;5.83;;;;;;;4.22;100.00;99650.66;5030148;28;20730;-83
2023/11/27 09:35:12;;;;;;;9.53;6.20;;;;;;;4.23;100.00;99653.19;5031900;28;20221;-82
2023/11/27 09:37:39;;;;;;;6.70;5.60;;;;;;;4.25;100.00;99646.06;5025479;28;20202;-84
2023/11/27 09:40:08;;;;;;;8.70;6.23;;;;;;;4.23;100.00;99639.19;5030488;28;20213;-82
2023/11/27 09:42:36;;;;;;;7.17;6.30;;;;;;;4.20;100.00;99634.91;5023206;28;20845;-82
2023/11/27 09:45:04;;;;;;;9.37;6.57;;;;;;;4.22;100.00;99635.69;5032821;28;20586;-81
2023/11/27 09:47:31;;;;;;;8.93;6.30;;;;;;;4.24;100.00;99633.81;5026061;28;20208;-82
2023/11/27 09:50:00;;;;;;;7.93;5.83;;;;;;;4.24;100.00;99611.88;5039897;28;20765;-82
2023/11/27 09:52:31;;;;;;;6.40;5.67;;;;;;;4.24;100.00;99615.38;5033064;28;20205;-82
2023/11/27 09:55:03;;;;;;;7.80;5.97;;;;;;;4.22;100.00;99611.13;5031195;28;20297;-82
2023/11/27 09:57:31;;;;;;;7.03;5.53;;;;;;;4.23;100.00;99612.81;5035018;28;20202;-81
2023/11/27 09:59:59;;;;;;;7.50;5.70;;;;;;;4.19;100.00;99606.84;5031559;28;20225;-83
2023/11/27 10:02:26;;;;;;;7.50;5.70;;;;;;;4.18;100.00;99602.50;5038597;28;20679;-80
2023/11/27 10:04:53;;;;;;;7.97;5.30;;;;;;;4.19;100.00;99601.59;5033007;28;20206;-80
2023/11/27 10:07:21;;;;;;;7.27;5.23;;;;;;;4.16;100.00;99602.59;5034805;28;20264;-82
2023/11/27 10:09:51;;;;;;;7.77;5.97;;;;;;;4.13;100.00;99586.09;5035221;28;20238;-81
2023/11/27 10:12:24;;;;;;;7.23;5.33;;;;;;;4.12;100.00;99587.06;5036656;28;20206;-81
2023/11/27 10:14:53;;;;;;;6.60;4.80;;;;;;;4.10;100.00;99575.75;5034776;28;20578;-82
2023/11/27 10:17:19;;;;;;;7.20;5.67;;;;;;;4.05;100.00;99573.34;5035508;28;20300;-81
2023/11/27 10:19:45;;;;;;;8.63;5.57;;;;;;;4.04;100.00;99571.66;5032023;28;20683;-81
2023/11/27 10:22:13;;;;;;;6.07;5.47;;;;;;;4.02;100.00;99565.59;5028968;28;21393;-81
2023/11/27 10:24:43;;;;;;;7.60;5.43;;;;;;;4.00;100.00;99570.09;5030950;28;20207;-81
2023/11/27 10:27:09;;;;;;;7.40;5.03;;;;;;;4.02;100.00;99562.97;5037783;28;20213;-82
2023/11/27 10:29:36;;;;;;;5.80;5.20;;;;;;;4.01;100.00;99556.00;5032943;28;20237;-81
2023/11/27 10:32:03;;;;;;;7.07;5.37;;;;;;;3.98;100.00;99552.66;5029088;28;20221;-81
2023/11/27 10:34:32;;;;;;;7.53;5.70;;;;;;;3.99;100.00;99542.06;5035672;28;20638;-81
2023/11/27 10:37:00;;;;;;;5.30;4.33;;;;;;;4.01;100.00;99539.34;5035373;28;20667;-82
2023/11/27 10:39:32;;;;;;;8.97;5.03;;;;;;;3.96;100.00;99526.41;5033857;28;20222;-82
2023/11/27 10:42:02;;;;;;;6.40;5.60;;;;;;;3.95;100.00;99519.44;5028246;28;20663;-81
2023/11/27 10:44:35;;;;;;;7.13;5.17;;;;;;;3.94;100.00;99523.00;5033512;28;20626;-80
2023/11/27 10:47:04;;;;;;;8.07;5.67;;;;;;;3.92;100.00;99514.38;5036637;28;20272;-81
2023/11/27 10:49:32;;;;;;;7.17;5.60;;;;;;;3.91;100.00;99509.19;5034876;28;20634;-82
2023/11/27 10:52:02;;;;;;;7.67;5.73;;;;;;;3.93;100.00;99502.91;5038769;28;20213;-81
2023/11/27 10:54:30;;;;;;;9.67;6.43;;;;;;;3.94;100.00;99494.03;5028712;28;20199;-80
2023/11/27 10:57:03;;;;;;;7.10;6.37;;;;;;;3.93;100.00;99496.78;5025594;28;20203;-81
2023/11/27 10:59:31;;;;;;;8.47;6.07;;;;;;;3.93;100.00;99492.38;5038484;28;20261;-81
2023/11/27 11:02:00;;;;;;;6.10;5.30;;;;;;;3.93;100.00;99486.25;5033025;28;20210;-80
2023/11/27 11:04:32;;;;;;;8.43;5.43;;;;;;;3.92;100.00;99488.03;5035149;28;20205;-81
2023/11/27 11:07:18;;;;;;;6.10;5.30;;;;;;;3.90;100.00;99471.44;5033595;28;20663;-81
2023/11/27 11:09:47;;;;;;;11.93;5.70;;;;;;;3.88;100.00;99475.94;5032023;28;20379;-80
2023/11/27 11:12:19;;;;;;;7.27;5.63;;;;;;;3.87;100.00;99466.34;5026107;28;20197;-81
2023/11/27 11:14:46;;;;;;;7.10;5.40;;;;;;;3.87;100.00;99465.50;5029878;28;20199;-82
2023/11/27 11:17:20;;;;;;;8.43;5.50;;;;;;;3.87;100.00;99458.44;5032222;28;20202;-81
2023/11/27 11:19:55;;;;;;;8.03;5.93;;;;;;;3.89;100.00;99461.00;5030059;28;20237;-80
2023/11/27 11:22:30;;;;;;;9.87;6.00;;;;;;;3.90;100.00;99462.69;5028289;28;20259;-81
2023/11/27 11:25:08;;;;;;;6.03;4.90;;;;;;;3.89;100.00;99450.47;5030917;28;20212;-86
2023/11/27 11:27:42;;;;;;;7.77;5.27;;;;;;;3.84;100.00;99443.66;5038555;28;20677;-81
2023/11/27 11:30:12;;;;;;;7.50;5.30;;;;;;;3.83;100.00;99444.59;5033246;28;20214;-81